CMA CGM Tage — 9HA3777 — position and weather

sailwx.info

Track history (hours):
 
Tides and Currents Weather Stations Pressure Air Temp Water Temp Dewpoint Dewpoint Depression Visibility Wind Speed Wind Dir Waves Ship Positions

CMA CGM Tage

Last reported at 2018-Apr-26 23:00 UTC. Time now 2018-Apr-26 22:59 UTC.
Position N 35°30' E 017°29'.

Length 300 m; draft 13 m.

Type: Ship (hazmat cat A). MMSI: 229988000.

Date/timePositionNaut miles runAvg speedWind from/ knotsBaromVisibWave heightAir tempDewpointWater temp
2018-Apr-26 23:00N 35°30' E 017°29'1018.2
2018-Apr-26 22:25N 35°33' E 017°17'818.0
2018-Apr-26 22:00N 35°35' E 017°08'917.9
2018-Apr-26 21:30N 35°38' E 016°58'917.8
2018-Apr-26 21:00N 35°41' E 016°47'918.1
2018-Apr-26 20:30N 35°43' E 016°37'917.9
2018-Apr-26 20:00N 35°46' E 016°26'917.8
2018-Apr-26 19:30N 35°48' E 016°16'918.1
2018-Apr-26 19:00N 35°51' E 016°05'918.1
2018-Apr-26 18:30N 35°54' E 015°54'918.3
2018-Apr-26 18:00N 35°57' E 015°44'918.2
2018-Apr-26 17:30N 35°59' E 015°33'918.0
2018-Apr-26 17:00N 36°02' E 015°22'918.2
2018-Apr-26 16:30N 36°05' E 015°12'918.2
2018-Apr-26 16:00N 36°07' E 015°01'918.2
2018-Apr-26 15:30N 36°10' E 014°50'918.2
2018-Apr-26 15:00N 36°13' E 014°39'918.1
2018-Apr-26 14:30N 36°15' E 014°29'918.0
2018-Apr-26 14:00N 36°19' E 014°18'918.2
2018-Apr-26 13:30N 36°22' E 014°08'918.4
2018-Apr-26 13:00N 36°25' E 013°57'918.1
2018-Apr-26 12:30N 36°28' E 013°46'918.0
2018-Apr-26 12:00N 36°31' E 013°36'918.3
2018-Apr-26 11:30N 36°34' E 013°25'918.4
2018-Apr-26 11:00N 36°38' E 013°15'918.3
2018-Apr-26 10:30N 36°41' E 013°04'918.2
2018-Apr-26 10:00N 36°44' E 012°53'918.0
2018-Apr-26 09:30N 36°47' E 012°42'917.9
2018-Apr-26 09:00N 36°50' E 012°32'917.9
2018-Apr-26 08:30N 36°54' E 012°22'918.2
2018-Apr-26 08:00N 36°57' E 012°11'918.0
2018-Apr-26 07:30N 36°60' E 012°00'918.1
2018-Apr-26 06:59N 37°04' E 011°50'918.5
2018-Apr-26 06:29N 37°09' E 011°40'918.3
2018-Apr-26 05:59N 37°13' E 011°30'918.4
2018-Apr-26 05:29N 37°18' E 011°20'918.4
2018-Apr-26 05:00N 37°22' E 011°10'918.2
2018-Apr-26 04:30N 37°25' E 010°59'918.3
2018-Apr-26 04:00N 37°27' E 010°48'1018.5
2018-Apr-26 03:28N 37°29' E 010°36'12017.9
2018-Apr-25 20:47N 37°39' E 008°06'518.0
2018-Apr-25 20:30N 37°38' E 007°59'917.8
2018-Apr-25 19:59N 37°37' E 007°48'35718.0
2018-Apr-25 00:08N 36°40' E 000°25'318.4
2018-Apr-24 23:59N 36°40' E 000°22'27118.7
2018-Apr-24 09:31N 36°00' W 005°11'118.4
2018-Apr-24 09:27N 35°60' W 005°12'818.8
2018-Apr-24 09:00N 35°59' W 005°23'86518.0
2018-Apr-22 08:59N 36°45' W 023°15'918.2
2018-Apr-22 08:29N 36°44' W 023°27'918.3
2018-Apr-22 08:00N 36°44' W 023°38'918.0
2018-Apr-22 07:30N 36°44' W 023°49'917.7
2018-Apr-22 07:00N 36°43' W 024°00'918.1
2018-Apr-22 06:30N 36°43' W 024°11'918.1
2018-Apr-22 06:00N 36°42' W 024°23'917.8
2018-Apr-22 05:30N 36°42' W 024°34'918.0
2018-Apr-22 05:00N 36°42' W 024°45'917.8
2018-Apr-22 04:30N 36°41' W 024°56'917.9
2018-Apr-22 04:00N 36°41' W 025°07'918.1
2018-Apr-22 03:30N 36°41' W 025°18'918.2
2018-Apr-22 03:00N 36°40' W 025°30'918.0
2018-Apr-22 02:30N 36°40' W 025°41'918.1
2018-Apr-22 02:00N 36°40' W 025°52'918.2
2018-Apr-22 01:30N 36°39' W 026°04'918.3
2018-Apr-22 01:00N 36°39' W 026°15'918.2
2018-Apr-22 00:30N 36°38' W 026°26'12918.2
2018-Apr-21 17:26N 36°33' W 029°07'  
Track history (hours):
 
Tides and Currents Weather Stations Pressure Air Temp Water Temp Dewpoint Dewpoint Depression Visibility Wind Speed Wind Dir Waves Ship Positions

CMA CGM Tage

Last reported at 2018-Apr-26 23:00 UTC. Time now 2018-Apr-26 22:59 UTC.
Position N 35°30' E 017°29'.

Length 300 m; draft 13 m.

Type: Ship (hazmat cat A). MMSI: 229988000.

Date/timePositionNaut miles runAvg speedWind from/ knotsBaromVisibWave heightAir tempDewpointWater temp
2018-Apr-26 23:00N 35°30' E 017°29'1018.2
2018-Apr-26 22:25N 35°33' E 017°17'818.0
2018-Apr-26 22:00N 35°35' E 017°08'917.9
2018-Apr-26 21:30N 35°38' E 016°58'917.8
2018-Apr-26 21:00N 35°41' E 016°47'918.1
2018-Apr-26 20:30N 35°43' E 016°37'917.9
2018-Apr-26 20:00N 35°46' E 016°26'917.8
2018-Apr-26 19:30N 35°48' E 016°16'918.1
2018-Apr-26 19:00N 35°51' E 016°05'918.1
2018-Apr-26 18:30N 35°54' E 015°54'918.3
2018-Apr-26 18:00N 35°57' E 015°44'918.2
2018-Apr-26 17:30N 35°59' E 015°33'918.0
2018-Apr-26 17:00N 36°02' E 015°22'918.2
2018-Apr-26 16:30N 36°05' E 015°12'918.2
2018-Apr-26 16:00N 36°07' E 015°01'918.2
2018-Apr-26 15:30N 36°10' E 014°50'918.2
2018-Apr-26 15:00N 36°13' E 014°39'918.1
2018-Apr-26 14:30N 36°15' E 014°29'918.0
2018-Apr-26 14:00N 36°19' E 014°18'918.2
2018-Apr-26 13:30N 36°22' E 014°08'918.4
2018-Apr-26 13:00N 36°25' E 013°57'918.1
2018-Apr-26 12:30N 36°28' E 013°46'918.0
2018-Apr-26 12:00N 36°31' E 013°36'918.3
2018-Apr-26 11:30N 36°34' E 013°25'918.4
2018-Apr-26 11:00N 36°38' E 013°15'918.3
2018-Apr-26 10:30N 36°41' E 013°04'918.2
2018-Apr-26 10:00N 36°44' E 012°53'918.0
2018-Apr-26 09:30N 36°47' E 012°42'917.9
2018-Apr-26 09:00N 36°50' E 012°32'917.9
2018-Apr-26 08:30N 36°54' E 012°22'918.2
2018-Apr-26 08:00N 36°57' E 012°11'918.0
2018-Apr-26 07:30N 36°60' E 012°00'918.1
2018-Apr-26 06:59N 37°04' E 011°50'918.5
2018-Apr-26 06:29N 37°09' E 011°40'918.3
2018-Apr-26 05:59N 37°13' E 011°30'918.4
2018-Apr-26 05:29N 37°18' E 011°20'918.4
2018-Apr-26 05:00N 37°22' E 011°10'918.2
2018-Apr-26 04:30N 37°25' E 010°59'918.3
2018-Apr-26 04:00N 37°27' E 010°48'1018.5
2018-Apr-26 03:28N 37°29' E 010°36'12017.9
2018-Apr-25 20:47N 37°39' E 008°06'518.0
2018-Apr-25 20:30N 37°38' E 007°59'917.8
2018-Apr-25 19:59N 37°37' E 007°48'35718.0
2018-Apr-25 00:08N 36°40' E 000°25'318.4
2018-Apr-24 23:59N 36°40' E 000°22'27118.7
2018-Apr-24 09:31N 36°00' W 005°11'118.4
2018-Apr-24 09:27N 35°60' W 005°12'818.8
2018-Apr-24 09:00N 35°59' W 005°23'86518.0
2018-Apr-22 08:59N 36°45' W 023°15'918.2
2018-Apr-22 08:29N 36°44' W 023°27'918.3
2018-Apr-22 08:00N 36°44' W 023°38'918.0
2018-Apr-22 07:30N 36°44' W 023°49'917.7
2018-Apr-22 07:00N 36°43' W 024°00'918.1
2018-Apr-22 06:30N 36°43' W 024°11'918.1
2018-Apr-22 06:00N 36°42' W 024°23'917.8
2018-Apr-22 05:30N 36°42' W 024°34'918.0
2018-Apr-22 05:00N 36°42' W 024°45'917.8
2018-Apr-22 04:30N 36°41' W 024°56'917.9
2018-Apr-22 04:00N 36°41' W 025°07'918.1
2018-Apr-22 03:30N 36°41' W 025°18'918.2
2018-Apr-22 03:00N 36°40' W 025°30'918.0
2018-Apr-22 02:30N 36°40' W 025°41'918.1
2018-Apr-22 02:00N 36°40' W 025°52'918.2
2018-Apr-22 01:30N 36°39' W 026°04'918.3
2018-Apr-22 01:00N 36°39' W 026°15'918.2
2018-Apr-22 00:30N 36°38' W 026°26'12918.2
2018-Apr-21 17:26N 36°33' W 029°07'  

Dump ship's entire track history